sensor_id;sensor_type;location;lat;lon;timestamp;pressure;altitude;pressure_sealevel;temperature;humidity
48077;BME280;33854;57.708;12.008;2023-05-09T00:01:43;101832.94;;;9.37;100.00
48077;BME280;33854;57.708;12.008;2023-05-09T00:04:09;101820.91;;;9.31;100.00
48077;BME280;33854;57.708;12.008;2023-05-09T00:06:35;101821.03;;;9.27;100.00
48077;BME280;33854;57.708;12.008;2023-05-09T00:09:02;101825.34;;;9.28;100.00
48077;BME280;33854;57.708;12.008;2023-05-09T00:11:29;101825.31;;;9.29;100.00
48077;BME280;33854;57.708;12.008;2023-05-09T00:13:54;101824.53;;;9.26;100.00
48077;BME280;33854;57.708;12.008;2023-05-09T00:16:20;101819.31;;;9.26;100.00
48077;BME280;33854;57.708;12.008;2023-05-09T00:18:48;101821.94;;;9.24;100.00
48077;BME280;33854;57.708;12.008;2023-05-09T00:21:13;101821.25;;;9.18;100.00
48077;BME280;33854;57.708;12.008;2023-05-09T00:23:39;101810.03;;;9.14;100.00
48077;BME280;33854;57.708;12.008;2023-05-09T00:26:05;101818.72;;;9.14;100.00
48077;BME280;33854;57.708;12.008;2023-05-09T00:28:30;101811.81;;;9.12;100.00
48077;BME280;33854;57.708;12.008;2023-05-09T00:30:56;101814.38;;;9.15;100.00
48077;BME280;33854;57.708;12.008;2023-05-09T00:33:22;101805.75;;;9.11;100.00
48077;BME280;33854;57.708;12.008;2023-05-09T00:35:52;101810.09;;;9.11;100.00
48077;BME280;33854;57.708;12.008;2023-05-09T00:38:17;101802.28;;;9.11;100.00
48077;BME280;33854;57.708;12.008;2023-05-09T00:40:43;101805.81;;;9.08;100.00
48077;BME280;33854;57.708;12.008;2023-05-09T00:43:08;101807.63;;;9.06;100.00
48077;BME280;33854;57.708;12.008;2023-05-09T00:45:34;101807.69;;;9.03;100.00
48077;BME280;33854;57.708;12.008;2023-05-09T00:47:59;101801.63;;;9.03;100.00
48077;BME280;33854;57.708;12.008;2023-05-09T00:50:25;101801.63;;;9.03;100.00
48077;BME280;33854;57.708;12.008;2023-05-09T00:52:50;101793.75;;;9.04;100.00
48077;BME280;33854;57.708;12.008;2023-05-09T00:55:16;101792.91;;;9.04;100.00
48077;BME280;33854;57.708;12.008;2023-05-09T00:57:42;101798.22;;;8.99;100.00
48077;BME280;33854;57.708;12.008;2023-05-09T01:00:08;101790.41;;;8.99;100.00
48077;BME280;33854;57.708;12.008;2023-05-09T01:02:46;101786.25;;;8.92;100.00
48077;BME280;33854;57.708;12.008;2023-05-09T01:05:13;101787.97;;;8.92;100.00
48077;BME280;33854;57.708;12.008;2023-05-09T01:07:54;101769.97;;;8.83;100.00
48077;BME280;33854;57.708;12.008;2023-05-09T01:10:45;101787.19;;;8.88;100.00
48077;BME280;33854;57.708;12.008;2023-05-09T01:13:24;101786.44;;;8.83;100.00
48077;BME280;33854;57.708;12.008;2023-05-09T01:21:16;101777.97;;;8.74;100.00
48077;BME280;33854;57.708;12.008;2023-05-09T01:31:43;101776.56;;;8.59;100.00
48077;BME280;33854;57.708;12.008;2023-05-09T01:34:10;101762.03;;;8.49;100.00
48077;BME280;33854;57.708;12.008;2023-05-09T01:36:39;101769.72;;;8.55;100.00
48077;BME280;33854;57.708;12.008;2023-05-09T01:39:10;101774.94;;;8.53;100.00
48077;BME280;33854;57.708;12.008;2023-05-09T01:41:36;101772.38;;;8.52;100.00
48077;BME280;33854;57.708;12.008;2023-05-09T01:44:05;101769.78;;;8.50;100.00
48077;BME280;33854;57.708;12.008;2023-05-09T01:46:32;101761.19;;;8.47;100.00
48077;BME280;33854;57.708;12.008;2023-05-09T01:48:58;101763.78;;;8.47;100.00
48077;BME280;33854;57.708;12.008;2023-05-09T01:51:27;101763.03;;;8.43;100.00
48077;BME280;33854;57.708;12.008;2023-05-09T01:53:53;101757.84;;;8.42;100.00
48077;BME280;33854;57.708;12.008;2023-05-09T01:56:21;101756.09;;;8.42;100.00
48077;BME280;33854;57.708;12.008;2023-05-09T01:58:49;101756.22;;;8.38;100.00
48077;BME280;33854;57.708;12.008;2023-05-09T02:01:15;101748.47;;;8.35;100.00
48077;BME280;33854;57.708;12.008;2023-05-09T02:03:44;101745.88;;;8.35;100.00
48077;BME280;33854;57.708;12.008;2023-05-09T02:06:10;101734.66;;;8.31;100.00
48077;BME280;33854;57.708;12.008;2023-05-09T02:08:36;101742.47;;;8.31;100.00
48077;BME280;33854;57.708;12.008;2023-05-09T02:11:02;101742.47;;;8.30;100.00
48077;BME280;33854;57.708;12.008;2023-05-09T02:13:28;101732.97;;;8.29;100.00
48077;BME280;33854;57.708;12.008;2023-05-09T02:15:54;101737.31;;;8.28;100.00
48077;BME280;33854;57.708;12.008;2023-05-09T02:18:19;101738.19;;;8.29;100.00
48077;BME280;33854;57.708;12.008;2023-05-09T02:20:46;101739.94;;;8.28;100.00
48077;BME280;33854;57.708;12.008;2023-05-09T02:23:12;101734.69;;;8.27;100.00
48077;BME280;33854;57.708;12.008;2023-05-09T02:25:38;101731.25;;;8.28;100.00
48077;BME280;33854;57.708;12.008;2023-05-09T02:28:05;101728.75;;;8.22;100.00
48077;BME280;33854;57.708;12.008;2023-05-09T02:30:32;101723.59;;;8.19;100.00
48077;BME280;33854;57.708;12.008;2023-05-09T02:33:05;101720.16;;;8.18;100.00
48077;BME280;33854;57.708;12.008;2023-05-09T02:35:31;101718.41;;;8.20;100.00
48077;BME280;33854;57.708;12.008;2023-05-09T02:37:58;101718.34;;;8.22;100.00
48077;BME280;33854;57.708;12.008;2023-05-09T02:40:25;101721.84;;;8.21;100.00
48077;BME280;33854;57.708;12.008;2023-05-09T02:42:52;101698.66;;;8.10;100.00
48077;BME280;33854;57.708;12.008;2023-05-09T02:45:17;101715.81;;;8.19;100.00
48077;BME280;33854;57.708;12.008;2023-05-09T02:47:43;101707.16;;;8.18;100.00
48077;BME280;33854;57.708;12.008;2023-05-09T02:50:08;101700.28;;;8.16;100.00
48077;BME280;33854;57.708;12.008;2023-05-09T02:52:34;101706.34;;;8.16;100.00
48077;BME280;33854;57.708;12.008;2023-05-09T02:55:00;101702.97;;;8.11;100.00
48077;BME280;33854;57.708;12.008;2023-05-09T02:57:25;101700.44;;;8.08;100.00
48077;BME280;33854;57.708;12.008;2023-05-09T02:59:51;101705.59;;;8.10;100.00
48077;BME280;33854;57.708;12.008;2023-05-09T03:02:16;101697.03;;;8.06;100.00
48077;BME280;33854;57.708;12.008;2023-05-09T03:04:42;101702.13;;;8.11;100.00
48077;BME280;33854;57.708;12.008;2023-05-09T03:07:07;101701.31;;;8.09;100.00
48077;BME280;33854;57.708;12.008;2023-05-09T03:09:33;101695.31;;;8.03;100.00
48077;BME280;33854;57.708;12.008;2023-05-09T03:11:58;101689.16;;;8.09;100.00
48077;BME280;33854;57.708;12.008;2023-05-09T03:14:23;101678.03;;;8.01;100.00
48077;BME280;33854;57.708;12.008;2023-05-09T03:16:50;101683.09;;;8.09;100.00
48077;BME280;33854;57.708;12.008;2023-05-09T03:19:15;101659.84;;;8.01;100.00
48077;BME280;33854;57.708;12.008;2023-05-09T03:21:41;101670.88;;;8.12;100.00
48077;BME280;33854;57.708;12.008;2023-05-09T03:24:06;101680.38;;;8.13;100.00
48077;BME280;33854;57.708;12.008;2023-05-09T03:26:32;101680.25;;;8.19;100.00
48077;BME280;33854;57.708;12.008;2023-05-09T03:29:00;101678.53;;;8.20;100.00
48077;BME280;33854;57.708;12.008;2023-05-09T03:31:25;101674.94;;;8.24;100.00
48077;BME280;33854;57.708;12.008;2023-05-09T03:33:51;101676.63;;;8.29;100.00
48077;BME280;33854;57.708;12.008;2023-05-09T03:36:16;101669.59;;;8.33;100.00
48077;BME280;33854;57.708;12.008;2023-05-09T03:38:42;101677.19;;;8.42;100.00
48077;BME280;33854;57.708;12.008;2023-05-09T03:41:07;101658.97;;;8.43;100.00
48077;BME280;33854;57.708;12.008;2023-05-09T03:43:33;101667.47;;;8.50;100.00
48077;BME280;33854;57.708;12.008;2023-05-09T03:45:58;101658.75;;;8.52;100.00
48077;BME280;33854;57.708;12.008;2023-05-09T03:48:24;101659.50;;;8.57;100.00
48077;BME280;33854;57.708;12.008;2023-05-09T03:50:49;101659.31;;;8.65;100.00
48077;BME280;33854;57.708;12.008;2023-05-09T03:53:15;101654.72;;;8.76;100.00
48077;BME280;33854;57.708;12.008;2023-05-09T03:55:40;101652.03;;;8.81;100.00
48077;BME280;33854;57.708;12.008;2023-05-09T03:58:06;101646.69;;;8.85;100.00
48077;BME280;33854;57.708;12.008;2023-05-09T04:00:31;101648.28;;;8.92;100.00
48077;BME280;33854;57.708;12.008;2023-05-09T04:02:57;101656.81;;;8.97;100.00
48077;BME280;33854;57.708;12.008;2023-05-09T04:05:22;101650.38;;;9.10;100.00
48077;BME280;33854;57.708;12.008;2023-05-09T04:07:48;101645.03;;;9.16;100.00
48077;BME280;33854;57.708;12.008;2023-05-09T04:10:14;101634.59;;;9.18;100.00
48077;BME280;33854;57.708;12.008;2023-05-09T04:12:39;101645.59;;;9.28;100.00
48077;BME280;33854;57.708;12.008;2023-05-09T04:15:05;101639.38;;;9.33;100.00
48077;BME280;33854;57.708;12.008;2023-05-09T04:17:31;101634.94;;;9.37;100.00
48077;BME280;33854;57.708;12.008;2023-05-09T04:19:58;101646.22;;;9.37;100.00
48077;BME280;33854;57.708;12.008;2023-05-09T04:22:23;101638.19;;;9.45;100.00
48077;BME280;33854;57.708;12.008;2023-05-09T04:24:48;101628.56;;;9.48;100.00
48077;BME280;33854;57.708;12.008;2023-05-09T04:27:14;101636.22;;;9.53;100.00
48077;BME280;33854;57.708;12.008;2023-05-09T04:29:40;101627.53;;;9.54;100.00
48077;BME280;33854;57.708;12.008;2023-05-09T04:32:06;101636.16;;;9.56;100.00
48077;BME280;33854;57.708;12.008;2023-05-09T04:34:31;101631.63;;;9.62;100.00
48077;BME280;33854;57.708;12.008;2023-05-09T04:36:57;101631.53;;;9.65;100.00
48077;BME280;33854;57.708;12.008;2023-05-09T04:39:22;101629.81;;;9.64;100.00
48077;BME280;33854;57.708;12.008;2023-05-09T04:41:48;101630.66;;;9.66;100.00
48077;BME280;33854;57.708;12.008;2023-05-09T04:44:14;101633.22;;;9.68;100.00
48077;BME280;33854;57.708;12.008;2023-05-09T04:46:39;101628.72;;;9.73;100.00
48077;BME280;33854;57.708;12.008;2023-05-09T04:49:05;101625.06;;;9.79;100.00
48077;BME280;33854;57.708;12.008;2023-05-09T04:51:30;101631.06;;;9.82;100.00
48077;BME280;33854;57.708;12.008;2023-05-09T04:53:56;101627.50;;;9.85;100.00
48077;BME280;33854;57.708;12.008;2023-05-09T04:56:21;101624.00;;;9.86;100.00
48077;BME280;33854;57.708;12.008;2023-05-09T04:58:47;101617.00;;;9.88;100.00
48077;BME280;33854;57.708;12.008;2023-05-09T05:01:12;101622.97;;;9.91;100.00
48077;BME280;33854;57.708;12.008;2023-05-09T05:03:38;101622.88;;;9.96;100.00
48077;BME280;33854;57.708;12.008;2023-05-09T05:06:03;101620.97;;;10.01;100.00
48077;BME280;33854;57.708;12.008;2023-05-09T05:08:29;101618.19;;;10.07;100.00
48077;BME280;33854;57.708;12.008;2023-05-09T05:10:54;101615.56;;;10.07;100.00
48077;BME280;33854;57.708;12.008;2023-05-09T05:13:20;101616.38;;;10.09;100.00
48077;BME280;33854;57.708;12.008;2023-05-09T05:15:46;101611.00;;;10.15;100.00
48077;BME280;33854;57.708;12.008;2023-05-09T05:18:11;101593.66;;;10.12;100.00
48077;BME280;33854;57.708;12.008;2023-05-09T05:20:39;101604.75;;;10.20;100.00
48077;BME280;33854;57.708;12.008;2023-05-09T05:23:05;101607.09;;;10.29;100.00
48077;BME280;33854;57.708;12.008;2023-05-09T05:25:30;101599.16;;;10.33;100.00
48077;BME280;33854;57.708;12.008;2023-05-09T05:27:55;101602.13;;;10.48;100.00
48077;BME280;33854;57.708;12.008;2023-05-09T05:30:21;101600.19;;;10.55;100.00
48077;BME280;33854;57.708;12.008;2023-05-09T05:32:46;101594.06;;;10.56;100.00
48077;BME280;33854;57.708;12.008;2023-05-09T05:35:12;101597.47;;;10.58;100.00
48077;BME280;33854;57.708;12.008;2023-05-09T05:37:40;101580.91;;;10.59;100.00
48077;BME280;33854;57.708;12.008;2023-05-09T05:40:07;101593.41;;;10.75;100.00
48077;BME280;33854;57.708;12.008;2023-05-09T05:42:33;101589.69;;;10.82;100.00
48077;BME280;33854;57.708;12.008;2023-05-09T05:44:58;101581.72;;;10.87;100.00
48077;BME280;33854;57.708;12.008;2023-05-09T05:47:31;101578.94;;;10.92;100.00
48077;BME280;33854;57.708;12.008;2023-05-09T05:50:00;101577.88;;;10.97;100.00
48077;BME280;33854;57.708;12.008;2023-05-09T05:52:26;101568.09;;;11.02;100.00
48077;BME280;33854;57.708;12.008;2023-05-09T05:54:52;101573.94;;;11.10;100.00
48077;BME280;33854;57.708;12.008;2023-05-09T05:57:18;101572.91;;;11.14;100.00
48077;BME280;33854;57.708;12.008;2023-05-09T05:59:47;101573.50;;;11.22;100.00
48077;BME280;33854;57.708;12.008;2023-05-09T06:02:14;101574.31;;;11.24;100.00
48077;BME280;33854;57.708;12.008;2023-05-09T06:04:40;101577.53;;;11.31;100.00
48077;BME280;33854;57.708;12.008;2023-05-09T06:07:06;101567.09;;;11.31;100.00
48077;BME280;33854;57.708;12.008;2023-05-09T06:09:31;101565.97;;;11.38;100.00
48077;BME280;33854;57.708;12.008;2023-05-09T06:11:57;101557.91;;;11.44;100.00
48077;BME280;33854;57.708;12.008;2023-05-09T06:14:22;101556.16;;;11.44;100.00
48077;BME280;33854;57.708;12.008;2023-05-09T06:16:48;101550.81;;;11.48;100.00
48077;BME280;33854;57.708;12.008;2023-05-09T06:19:13;101561.09;;;11.52;100.00
48077;BME280;33854;57.708;12.008;2023-05-09T06:21:38;101548.75;;;11.56;100.00
48077;BME280;33854;57.708;12.008;2023-05-09T06:24:04;101544.03;;;11.65;100.00
48077;BME280;33854;57.708;12.008;2023-05-09T06:26:30;101535.94;;;11.73;100.00
48077;BME280;33854;57.708;12.008;2023-05-09T06:28:55;101536.94;;;11.69;100.00
48077;BME280;33854;57.708;12.008;2023-05-09T06:31:21;101531.28;;;11.81;100.00
48077;BME280;33854;57.708;12.008;2023-05-09T06:33:46;101538.94;;;11.85;100.00
48077;BME280;33854;57.708;12.008;2023-05-09T06:36:12;101538.78;;;11.90;100.00
48077;BME280;33854;57.708;12.008;2023-05-09T06:38:37;101545.53;;;11.95;100.00
48077;BME280;33854;57.708;12.008;2023-05-09T06:41:03;101523.97;;;11.89;100.00
48077;BME280;33854;57.708;12.008;2023-05-09T06:43:28;101528.63;;;12.04;100.00
48077;BME280;33854;57.708;12.008;2023-05-09T06:45:53;101535.06;;;12.17;100.00
48077;BME280;33854;57.708;12.008;2023-05-09T06:48:19;101528.59;;;12.26;100.00
48077;BME280;33854;57.708;12.008;2023-05-09T06:50:44;101523.06;;;12.33;100.00
48077;BME280;33854;57.708;12.008;2023-05-09T06:53:10;101524.47;;;12.42;100.00
48077;BME280;33854;57.708;12.008;2023-05-09T06:55:35;101516.41;;;12.46;100.00
48077;BME280;33854;57.708;12.008;2023-05-09T06:58:02;101519.81;;;12.48;100.00
48077;BME280;33854;57.708;12.008;2023-05-09T07:00:27;101513.41;;;12.55;100.00
48077;BME280;33854;57.708;12.008;2023-05-09T07:02:52;101510.47;;;12.63;100.00
48077;BME280;33854;57.708;12.008;2023-05-09T07:05:18;101509.22;;;12.72;100.00
48077;BME280;33854;57.708;12.008;2023-05-09T07:07:43;101493.75;;;12.86;100.00
48077;BME280;33854;57.708;12.008;2023-05-09T07:10:09;101493.50;;;12.92;100.00
48077;BME280;33854;57.708;12.008;2023-05-09T07:12:34;101496.66;;;13.00;100.00
48077;BME280;33854;57.708;12.008;2023-05-09T07:15:00;101477.47;;;12.99;100.00
48077;BME280;33854;57.708;12.008;2023-05-09T07:17:25;101485.47;;;13.17;100.00
48077;BME280;33854;57.708;12.008;2023-05-09T07:19:51;101486.09;;;13.22;100.00
48077;BME280;33854;57.708;12.008;2023-05-09T07:22:16;101477.31;;;13.23;100.00
48077;BME280;33854;57.708;12.008;2023-05-09T07:24:42;101471.94;;;13.44;100.00
48077;BME280;33854;57.708;12.008;2023-05-09T07:27:08;101475.91;;;13.53;100.00
48077;BME280;33854;57.708;12.008;2023-05-09T07:29:34;101470.75;;;13.51;100.00
48077;BME280;33854;57.708;12.008;2023-05-09T07:32:00;101476.84;;;13.33;100.00
48077;BME280;33854;57.708;12.008;2023-05-09T07:34:25;101465.06;;;13.42;100.00
48077;BME280;33854;57.708;12.008;2023-05-09T07:36:51;101470.81;;;13.50;100.00
48077;BME280;33854;57.708;12.008;2023-05-09T07:39:16;101443.19;;;13.43;100.00
48077;BME280;33854;57.708;12.008;2023-05-09T07:41:41;101457.13;;;13.43;100.00
48077;BME280;33854;57.708;12.008;2023-05-09T07:44:07;101447.34;;;13.65;100.00
48077;BME280;33854;57.708;12.008;2023-05-09T07:46:34;101449.38;;;13.78;100.00
48077;BME280;33854;57.708;12.008;2023-05-09T07:49:02;101446.88;;;13.75;100.00
48077;BME280;33854;57.708;12.008;2023-05-09T07:51:27;101450.88;;;13.83;100.00
48077;BME280;33854;57.708;12.008;2023-05-09T07:53:53;101436.97;;;13.81;100.00
48077;BME280;33854;57.708;12.008;2023-05-09T07:56:20;101442.16;;;13.83;100.00
48077;BME280;33854;57.708;12.008;2023-05-09T07:58:46;101434.47;;;13.97;100.00
48077;BME280;33854;57.708;12.008;2023-05-09T08:01:12;101422.41;;;13.93;100.00
48077;BME280;33854;57.708;12.008;2023-05-09T08:03:37;101422.34;;;13.94;100.00
48077;BME280;33854;57.708;12.008;2023-05-09T08:06:03;101422.34;;;14.11;100.00
48077;BME280;33854;57.708;12.008;2023-05-09T08:08:28;101416.94;;;13.97;100.00
48077;BME280;33854;57.708;12.008;2023-05-09T08:10:54;101426.75;;;14.11;100.00
48077;BME280;33854;57.708;12.008;2023-05-09T08:13:20;101422.34;;;14.11;100.00
48077;BME280;33854;57.708;12.008;2023-05-09T08:15:47;101407.97;;;14.18;100.00
48077;BME280;33854;57.708;12.008;2023-05-09T08:18:12;101417.03;;;14.13;99.73
48077;BME280;33854;57.708;12.008;2023-05-09T08:20:38;101409.53;;;14.22;100.00
48077;BME280;33854;57.708;12.008;2023-05-09T08:23:04;101408.97;;;14.35;100.00
48077;BME280;33854;57.708;12.008;2023-05-09T08:25:30;101398.47;;;14.35;99.53
48077;BME280;33854;57.708;12.008;2023-05-09T08:27:56;101398.31;;;14.38;99.07
48077;BME280;33854;57.708;12.008;2023-05-09T08:30:21;101396.66;;;14.35;98.18
48077;BME280;33854;57.708;12.008;2023-05-09T08:32:47;101394.56;;;14.59;98.99
48077;BME280;33854;57.708;12.008;2023-05-09T08:35:12;101391.16;;;14.57;97.15
48077;BME280;33854;57.708;12.008;2023-05-09T08:37:37;101392.16;;;14.71;97.15
48077;BME280;33854;57.708;12.008;2023-05-09T08:40:04;101389.78;;;14.82;94.30
48077;BME280;33854;57.708;12.008;2023-05-09T08:42:35;101402.19;;;14.96;93.55
48077;BME280;33854;57.708;12.008;2023-05-09T08:45:08;101386.53;;;14.95;92.69
48077;BME280;33854;57.708;12.008;2023-05-09T08:47:37;101390.75;;;15.13;92.11
48077;BME280;33854;57.708;12.008;2023-05-09T08:50:04;101390.16;;;14.92;88.33
48077;BME280;33854;57.708;12.008;2023-05-09T08:52:31;101376.06;;;14.93;88.28
48077;BME280;33854;57.708;12.008;2023-05-09T08:54:57;101387.31;;;15.12;86.73
48077;BME280;33854;57.708;12.008;2023-05-09T08:57:22;101390.09;;;15.25;87.04
48077;BME280;33854;57.708;12.008;2023-05-09T08:59:48;101387.00;;;15.50;87.61
48077;BME280;33854;57.708;12.008;2023-05-09T09:02:15;101368.56;;;15.65;85.55
48077;BME280;33854;57.708;12.008;2023-05-09T09:04:41;101387.66;;;15.69;78.49
48077;BME280;33854;57.708;12.008;2023-05-09T09:07:07;101366.44;;;15.25;69.05
48077;BME280;33854;57.708;12.008;2023-05-09T09:09:35;101394.69;;;15.37;71.07
48077;BME280;33854;57.708;12.008;2023-05-09T09:12:03;101385.81;;;15.55;72.99
48077;BME280;33854;57.708;12.008;2023-05-09T09:14:31;101383.66;;;15.46;70.45
48077;BME280;33854;57.708;12.008;2023-05-09T09:17:03;101386.56;;;15.57;71.60
48077;BME280;33854;57.708;12.008;2023-05-09T09:19:30;101391.41;;;15.49;70.10
48077;BME280;33854;57.708;12.008;2023-05-09T09:21:59;101391.97;;;15.38;71.43
48077;BME280;33854;57.708;12.008;2023-05-09T09:24:26;101382.22;;;15.40;73.00
48077;BME280;33854;57.708;12.008;2023-05-09T09:26:53;101375.63;;;15.49;72.98
48077;BME280;33854;57.708;12.008;2023-05-09T09:29:18;101365.81;;;15.82;74.27
48077;BME280;33854;57.708;12.008;2023-05-09T09:31:51;101373.84;;;15.95;71.89
48077;BME280;33854;57.708;12.008;2023-05-09T09:34:20;101365.91;;;16.11;70.96
48077;BME280;33854;57.708;12.008;2023-05-09T09:36:46;101358.00;;;16.11;70.00
48077;BME280;33854;57.708;12.008;2023-05-09T09:39:13;101358.41;;;16.33;69.69
48077;BME280;33854;57.708;12.008;2023-05-09T09:41:39;101359.75;;;16.40;68.34
48077;BME280;33854;57.708;12.008;2023-05-09T09:44:23;101357.16;;;16.24;64.84
48077;BME280;33854;57.708;12.008;2023-05-09T09:46:53;101351.94;;;16.38;64.72
48077;BME280;33854;57.708;12.008;2023-05-09T09:49:22;101355.03;;;16.31;60.81
48077;BME280;33854;57.708;12.008;2023-05-09T09:51:49;101342.72;;;16.31;59.29
48077;BME280;33854;57.708;12.008;2023-05-09T09:54:16;101349.56;;;16.34;59.15
48077;BME280;33854;57.708;12.008;2023-05-09T09:56:44;101350.16;;;16.53;59.54
48077;BME280;33854;57.708;12.008;2023-05-09T09:59:12;101333.38;;;16.70;58.89
48077;BME280;33854;57.708;12.008;2023-05-09T10:01:59;101332.50;;;16.83;56.93
48077;BME280;33854;57.708;12.008;2023-05-09T10:04:30;101326.09;;;16.73;55.57
48077;BME280;33854;57.708;12.008;2023-05-09T10:07:07;101324.28;;;16.88;54.10
48077;BME280;33854;57.708;12.008;2023-05-09T10:09:35;101315.97;;;17.08;53.61
48077;BME280;33854;57.708;12.008;2023-05-09T10:12:06;101309.03;;;17.07;52.06
48077;BME280;33854;57.708;12.008;2023-05-09T10:14:34;101299.81;;;17.27;51.92
48077;BME280;33854;57.708;12.008;2023-05-09T10:17:02;101306.19;;;17.10;51.38
48077;BME280;33854;57.708;12.008;2023-05-09T10:19:28;101306.47;;;17.05;52.11
48077;BME280;33854;57.708;12.008;2023-05-09T10:22:13;101313.75;;;17.29;53.61
48077;BME280;33854;57.708;12.008;2023-05-09T10:24:47;101304.31;;;17.39;52.74
48077;BME280;33854;57.708;12.008;2023-05-09T10:27:14;101306.34;;;17.21;53.56
48077;BME280;33854;57.708;12.008;2023-05-09T10:30:08;101305.03;;;17.55;53.57
48077;BME280;33854;57.708;12.008;2023-05-09T10:32:56;101296.53;;;17.89;55.16
48077;BME280;33854;57.708;12.008;2023-05-09T10:35:28;101297.75;;;18.10;54.96
48077;BME280;33854;57.708;12.008;2023-05-09T10:37:55;101295.22;;;18.21;55.26
48077;BME280;33854;57.708;12.008;2023-05-09T10:40:24;101286.44;;;18.34;56.30
48077;BME280;33854;57.708;12.008;2023-05-09T10:42:50;101285.78;;;18.43;54.16
48077;BME280;33854;57.708;12.008;2023-05-09T10:45:15;101277.63;;;18.46;52.97
48077;BME280;33854;57.708;12.008;2023-05-09T10:47:42;101257.16;;;18.24;51.79
48077;BME280;33854;57.708;12.008;2023-05-09T10:50:10;101273.41;;;18.43;51.91
48077;BME280;33854;57.708;12.008;2023-05-09T11:00:50;101267.13;;;18.82;47.62
48077;BME280;33854;57.708;12.008;2023-05-09T11:03:16;101255.84;;;19.04;47.20
48077;BME280;33854;57.708;12.008;2023-05-09T11:05:50;101258.00;;;19.22;47.83
48077;BME280;33854;57.708;12.008;2023-05-09T11:08:26;101259.13;;;19.31;47.93
48077;BME280;33854;57.708;12.008;2023-05-09T11:10:55;101247.47;;;19.10;47.84
48077;BME280;33854;57.708;12.008;2023-05-09T11:13:24;101252.03;;;19.08;47.65
48077;BME280;33854;57.708;12.008;2023-05-09T11:18:24;101243.28;;;19.18;47.05
48077;BME280;33854;57.708;12.008;2023-05-09T11:20:50;101253.22;;;19.27;46.92
48077;BME280;33854;57.708;12.008;2023-05-09T11:23:19;101217.69;;;19.19;46.86
48077;BME280;33854;57.708;12.008;2023-05-09T11:25:46;101230.56;;;19.23;45.74
48077;BME280;33854;57.708;12.008;2023-05-09T11:28:33;101243.28;;;19.18;48.35
48077;BME280;33854;57.708;12.008;2023-05-09T11:31:14;101239.75;;;19.07;49.84
48077;BME280;33854;57.708;12.008;2023-05-09T11:33:41;101229.06;;;19.08;49.50
48077;BME280;33854;57.708;12.008;2023-05-09T11:38:43;101228.19;;;18.84;49.82
48077;BME280;33854;57.708;12.008;2023-05-09T11:41:09;101217.28;;;18.89;51.47
48077;BME280;33854;57.708;12.008;2023-05-09T11:43:38;101224.03;;;18.93;49.92
48077;BME280;33854;57.708;12.008;2023-05-09T11:46:04;101214.13;;;19.31;50.15
48077;BME280;33854;57.708;12.008;2023-05-09T11:48:29;101213.22;;;19.89;49.66
48077;BME280;33854;57.708;12.008;2023-05-09T11:50:55;101222.06;;;20.23;50.19
48077;BME280;33854;57.708;12.008;2023-05-09T11:53:21;101207.22;;;20.20;50.77
48077;BME280;33854;57.708;12.008;2023-05-09T11:55:46;101221.44;;;19.97;46.73
48077;BME280;33854;57.708;12.008;2023-05-09T11:58:12;101186.66;;;19.45;44.76
48077;BME280;33854;57.708;12.008;2023-05-09T12:00:43;101217.19;;;19.83;45.04
48077;BME280;33854;57.708;12.008;2023-05-09T12:03:09;101216.22;;;19.39;45.53
48077;BME280;33854;57.708;12.008;2023-05-09T12:05:35;101206.63;;;19.49;45.01
48077;BME280;33854;57.708;12.008;2023-05-09T12:08:05;101206.41;;;20.20;45.40
48077;BME280;33854;57.708;12.008;2023-05-09T12:10:31;101206.19;;;20.34;43.42
48077;BME280;33854;57.708;12.008;2023-05-09T12:12:57;101192.31;;;20.30;43.35
48077;BME280;33854;57.708;12.008;2023-05-09T12:15:23;101202.59;;;20.89;44.04
48077;BME280;33854;57.708;12.008;2023-05-09T12:18:04;101190.13;;;20.46;42.45
48077;BME280;33854;57.708;12.008;2023-05-09T12:20:45;101193.50;;;20.26;40.87
48077;BME280;33854;57.708;12.008;2023-05-09T12:23:12;101182.47;;;21.18;41.45
48077;BME280;33854;57.708;12.008;2023-05-09T12:25:45;101188.72;;;21.49;39.55
48077;BME280;33854;57.708;12.008;2023-05-09T12:28:11;101183.28;;;20.87;37.90
48077;BME280;33854;57.708;12.008;2023-05-09T12:30:36;101181.97;;;21.45;38.23
48077;BME280;33854;57.708;12.008;2023-05-09T12:33:02;101175.81;;;21.86;37.68
48077;BME280;33854;57.708;12.008;2023-05-09T12:35:28;101164.47;;;21.84;36.70
48077;BME280;33854;57.708;12.008;2023-05-09T12:37:55;101172.38;;;21.74;35.68
48077;BME280;33854;57.708;12.008;2023-05-09T12:40:22;101177.03;;;21.61;35.62
48077;BME280;33854;57.708;12.008;2023-05-09T12:42:47;101163.06;;;21.38;35.35
48077;BME280;33854;57.708;12.008;2023-05-09T12:45:13;101155.03;;;22.21;36.36
48077;BME280;33854;57.708;12.008;2023-05-09T12:47:40;101153.38;;;22.39;34.40
48077;BME280;33854;57.708;12.008;2023-05-09T12:50:10;101155.53;;;21.64;35.80
48077;BME280;33854;57.708;12.008;2023-05-09T12:52:40;101165.97;;;21.56;36.15
48077;BME280;33854;57.708;12.008;2023-05-09T12:55:11;101147.94;;;22.01;36.45
48077;BME280;33854;57.708;12.008;2023-05-09T12:57:38;101148.03;;;21.69;36.82
48077;BME280;33854;57.708;12.008;2023-05-09T13:00:06;101151.84;;;21.97;36.03
48077;BME280;33854;57.708;12.008;2023-05-09T13:02:37;101136.69;;;21.67;35.62
48077;BME280;33854;57.708;12.008;2023-05-09T13:05:07;101133.94;;;22.48;36.20